KBKS

Details ICAO KBKS
Name BROOKS CO
Region United States
Timezone America/Chicago (UTC-6.0)
Plans Departing 2
Arriving 8
Stats Elevation 112 ft / 34 m (AMSL)
Location 27.206555° -98.121482°
Runways 2
Magnetic Variation 4.064° E
Sunrise 2017-12-13 13:14:55 UTC / 2017-12-13 07:14:55 Local
Sunset 2017-12-13 23:41:33 UTC / 2017-12-13 17:41:33 Local
Advertisement - Login to hide

Runways

ID Width Length Bearing (true) Bearing (mag) Surface Threshold Offset Overrun Length
14 40 ft / 12 m 3,079 ft / 938 m 149.60° 145.54° Asphalt 0 ft / 0 m 0 ft / 0 m
17 75 ft / 23 m 5,021 ft / 1,530 m 179.90° 175.84° Asphalt 0 ft / 0 m 0 ft / 0 m
32 40 ft / 12 m 3,079 ft / 938 m 329.61° 325.55° Asphalt 0 ft / 0 m 0 ft / 0 m
35 75 ft / 23 m 5,021 ft / 1,530 m 359.90° 355.84° Asphalt 0 ft / 0 m 0 ft / 0 m

Map

Weather


0- 5 10 15 20 25 30 35+ Temperature / ° C

Clouds and Precipitation
Forecast for 2017-12-14 00:00 UTC. Updated 2 hours ago

Ground ~20,000 ft ~40,000 ft Winds

METAR

KBKS 132235Z AUTO 00000KT 10SM CLR 19/02 A3004 RMK AO1 T01850023

TAF

Not found

Frequencies

Recorded 118.12 MHz AWOS 3
Approach 119.90 MHz KINGSVILLE APP
Unicom 122.80 MHz CTAF/UNICOM
Departure 119.90 MHz KINGSVILLE DEP
Warning: Do not use this data for real-world aviation or navigation. No guarantee of current accuracy is given.